Ital Oriente — A8LN2 — position and weather

sailwx.info

Track history (hours):
 
Tides and Currents Weather Stations Pressure Air Temp Water Temp Dewpoint Dewpoint Depression Visibility Wind Speed Wind Dir Waves Ship Positions

Ital Oriente

Last reported at 2015-Mar-27 10:15 UTC. Time now 2015-Mar-28 17:51 UTC.
Position N 39°48' E 023°36'.

Length 222 m; draft 7.1 m.

Type: Cargo ship. MMSI: 636091278.

Date/timePositionNaut miles runAvg speedWind from/ knotsBaromVisibWave heightAir tempDewpointWater temp
2015-Mar-27 10:15N 39°48' E 023°36'2615.5
2015-Mar-27 08:33N 39°37' E 024°07'223 4.6
2015-Mar-25 08:28N 40°55' E 028°40'2 0.1
2015-Mar-24 17:04N 40°57' E 028°40'1 1.5
2015-Mar-24 16:28N 40°56' E 028°40'9 9.0
2015-Mar-24 15:29N 40°51' E 028°30'28815.0
2015-Mar-23 20:13N 37°35' E 023°58'1116.3
2015-Mar-23 19:33N 37°37' E 023°44'1717.4
2015-Mar-23 18:33N 37°54' E 023°37'4 3.9
2015-Mar-23 17:32N 37°57' E 023°35'0 0.0
2015-Mar-23 16:32N 37°57' E 023°35'0 0.0
2015-Mar-23 15:32N 37°57' E 023°35'0 0.0
2015-Mar-23 14:32N 37°57' E 023°35'0 0.0
2015-Mar-23 13:29N 37°57' E 023°35'0 0.0
2015-Mar-23 12:29N 37°57' E 023°35'0 0.0
2015-Mar-23 11:32N 37°57' E 023°35'0 0.0
2015-Mar-23 10:23N 37°57' E 023°35'0 0.0
2015-Mar-23 09:32N 37°57' E 023°35'0 0.0
2015-Mar-23 08:29N 37°57' E 023°35'0 0.0
2015-Mar-23 07:29N 37°57' E 023°35'0 0.0
2015-Mar-23 05:29N 37°57' E 023°35'0 0.0
2015-Mar-23 04:32N 37°57' E 023°35'0 0.0
2015-Mar-23 03:23N 37°57' E 023°35'0 0.0
2015-Mar-23 02:32N 37°57' E 023°35'0 0.0
2015-Mar-23 01:29N 37°57' E 023°35'0 0.0
2015-Mar-23 00:32N 37°57' E 023°35'0 0.0
2015-Mar-22 23:32N 37°57' E 023°35'0 0.0
2015-Mar-22 22:29N 37°57' E 023°35'0 0.0
2015-Mar-22 21:32N 37°57' E 023°35'0 0.0
2015-Mar-22 20:23N 37°57' E 023°35'0 0.0
2015-Mar-22 19:32N 37°57' E 023°35'0 0.0
2015-Mar-22 18:32N 37°57' E 023°35'0 0.0
2015-Mar-22 17:32N 37°57' E 023°35'0 0.0
2015-Mar-22 16:32N 37°57' E 023°35'0 0.0
2015-Mar-22 15:32N 37°57' E 023°35'0 0.0
2015-Mar-22 14:17N 37°57' E 023°35'0 0.0
2015-Mar-22 13:20N 37°57' E 023°35'2 3.1
2015-Mar-22 12:33N 37°55' E 023°37'10 9.9
2015-Mar-22 11:33N 37°46' E 023°42'1313.0
2015-Mar-22 10:33N 37°37' E 023°53'  
2015-Mar-19 22:23N 39°35' E 024°12'  
2015-Mar-17 14:07N 40°53' E 028°39'5 2.4
2015-Mar-17 12:14N 40°58' E 028°40'0 0.0
2015-Mar-17 11:14N 40°58' E 028°40'0 0.0
2015-Mar-17 10:32N 40°58' E 028°40'  
Track history (hours):
 
Tides and Currents Weather Stations Pressure Air Temp Water Temp Dewpoint Dewpoint Depression Visibility Wind Speed Wind Dir Waves Ship Positions

Ital Oriente

Last reported at 2015-Mar-27 10:15 UTC. Time now 2015-Mar-28 17:51 UTC.
Position N 39°48' E 023°36'.

Length 222 m; draft 7.1 m.

Type: Cargo ship. MMSI: 636091278.

Date/timePositionNaut miles runAvg speedWind from/ knotsBaromVisibWave heightAir tempDewpointWater temp
2015-Mar-27 10:15N 39°48' E 023°36'2615.5
2015-Mar-27 08:33N 39°37' E 024°07'223 4.6
2015-Mar-25 08:28N 40°55' E 028°40'2 0.1
2015-Mar-24 17:04N 40°57' E 028°40'1 1.5
2015-Mar-24 16:28N 40°56' E 028°40'9 9.0
2015-Mar-24 15:29N 40°51' E 028°30'28815.0
2015-Mar-23 20:13N 37°35' E 023°58'1116.3
2015-Mar-23 19:33N 37°37' E 023°44'1717.4
2015-Mar-23 18:33N 37°54' E 023°37'4 3.9
2015-Mar-23 17:32N 37°57' E 023°35'0 0.0
2015-Mar-23 16:32N 37°57' E 023°35'0 0.0
2015-Mar-23 15:32N 37°57' E 023°35'0 0.0
2015-Mar-23 14:32N 37°57' E 023°35'0 0.0
2015-Mar-23 13:29N 37°57' E 023°35'0 0.0
2015-Mar-23 12:29N 37°57' E 023°35'0 0.0
2015-Mar-23 11:32N 37°57' E 023°35'0 0.0
2015-Mar-23 10:23N 37°57' E 023°35'0 0.0
2015-Mar-23 09:32N 37°57' E 023°35'0 0.0
2015-Mar-23 08:29N 37°57' E 023°35'0 0.0
2015-Mar-23 07:29N 37°57' E 023°35'0 0.0
2015-Mar-23 05:29N 37°57' E 023°35'0 0.0
2015-Mar-23 04:32N 37°57' E 023°35'0 0.0
2015-Mar-23 03:23N 37°57' E 023°35'0 0.0
2015-Mar-23 02:32N 37°57' E 023°35'0 0.0
2015-Mar-23 01:29N 37°57' E 023°35'0 0.0
2015-Mar-23 00:32N 37°57' E 023°35'0 0.0
2015-Mar-22 23:32N 37°57' E 023°35'0 0.0
2015-Mar-22 22:29N 37°57' E 023°35'0 0.0
2015-Mar-22 21:32N 37°57' E 023°35'0 0.0
2015-Mar-22 20:23N 37°57' E 023°35'0 0.0
2015-Mar-22 19:32N 37°57' E 023°35'0 0.0
2015-Mar-22 18:32N 37°57' E 023°35'0 0.0
2015-Mar-22 17:32N 37°57' E 023°35'0 0.0
2015-Mar-22 16:32N 37°57' E 023°35'0 0.0
2015-Mar-22 15:32N 37°57' E 023°35'0 0.0
2015-Mar-22 14:17N 37°57' E 023°35'0 0.0
2015-Mar-22 13:20N 37°57' E 023°35'2 3.1
2015-Mar-22 12:33N 37°55' E 023°37'10 9.9
2015-Mar-22 11:33N 37°46' E 023°42'1313.0
2015-Mar-22 10:33N 37°37' E 023°53'  
2015-Mar-19 22:23N 39°35' E 024°12'  
2015-Mar-17 14:07N 40°53' E 028°39'5 2.4
2015-Mar-17 12:14N 40°58' E 028°40'0 0.0
2015-Mar-17 11:14N 40°58' E 028°40'0 0.0
2015-Mar-17 10:32N 40°58' E 028°40'  

Dump ship's entire track history